Terminal Aerodrome Forecast
Issued by NWS

Home | Current Version | Previous Version | Text Only | Print | Product List | Glossary On
Versions: 1 2 3 4 5 6 7 8 9 10 11 12 13
000
FTUS46 KSTO 270500
TAFSMF
TAF
KSMF 270520Z 2706/2806 17011KT P6SM SKC
      TEMPO 2714/2716 SCT008
     FM272100 19010KT P6SM SKC=

USA.gov is the U.S. government's official web portal to all federal, state and local government web resources and services.